KMBG

Mobridge Municipal Airport

Mobridge, South Dakota, USA
METAR KMBG 162352Z AUTO 00000KT 10SM BKN120 02/M02 A2997 RMK AO2 SLP163 T00171017 10056 20017 53014
Observed Flight Rules
Dec-16 @ 23:52 UTC (26 minutes ago) Visual Flight Rules
Wind Visibility Clouds
Calm 10 miles
  • Broken at 12,000' AGL
Temperatures Readings
Current 2°C / 36°F
Dewpoint -2°C / 28°F
Humidity 75%
Altimeter 29.97" Hg
Pressure 1016.3 hPa
Elevation 510
METAR KMBG 162352Z AUTO 00000KT 10SM BKN120 02/M02 A2997 RMK AO2 SLP163 T00171017 10056 20017 53014
Observed Flight Rules
Dec-16 @ 23:52 UTC
(26 minutes ago)
VFR
Wind Visibility
Calm 10 miles
Clouds
  • Broken at 12,000' AGL
Temperature Dewpoint
2°C / 36°F -2°C / 28°F
Humidity Altimeter Pressure
75% 29.97" Hg 1016.3 hPa